sensor_id;sensor_type;location;lat;lon;timestamp;pressure;altitude;pressure_sealevel;temperature;humidity
80405;BME280;69733;48.744;9.176;2023-09-07T00:00:42;97085.28;;;15.36;63.97
80405;BME280;69733;48.744;9.176;2023-09-07T00:03:07;97091.94;;;15.34;64.04
80405;BME280;69733;48.744;9.176;2023-09-07T00:05:33;97086.25;;;15.30;64.25
80405;BME280;69733;48.744;9.176;2023-09-07T00:08:01;97083.84;;;15.29;64.23
80405;BME280;69733;48.744;9.176;2023-09-07T00:10:29;97095.91;;;15.26;64.69
80405;BME280;69733;48.744;9.176;2023-09-07T00:12:54;97087.28;;;15.24;64.50
80405;BME280;69733;48.744;9.176;2023-09-07T00:15:20;97086.16;;;15.20;64.56
80405;BME280;69733;48.744;9.176;2023-09-07T00:17:46;97083.75;;;15.19;64.66
80405;BME280;69733;48.744;9.176;2023-09-07T00:20:11;97088.53;;;15.17;64.81
80405;BME280;69733;48.744;9.176;2023-09-07T00:22:39;97093.34;;;15.15;65.06
80405;BME280;69733;48.744;9.176;2023-09-07T00:25:05;97083.94;;;15.12;64.70
80405;BME280;69733;48.744;9.176;2023-09-07T00:27:35;97094.06;;;15.10;65.11
80405;BME280;69733;48.744;9.176;2023-09-07T00:30:02;97090.28;;;15.06;65.14
80405;BME280;69733;48.744;9.176;2023-09-07T00:32:27;97089.72;;;15.04;65.37
80405;BME280;69733;48.744;9.176;2023-09-07T00:34:52;97092.91;;;15.01;65.66
80405;BME280;69733;48.744;9.176;2023-09-07T00:37:18;97095.00;;;14.99;65.50
80405;BME280;69733;48.744;9.176;2023-09-07T00:39:43;97096.31;;;14.97;65.78
80405;BME280;69733;48.744;9.176;2023-09-07T00:42:08;97086.91;;;14.94;65.87
80405;BME280;69733;48.744;9.176;2023-09-07T00:44:34;97089.84;;;14.92;66.15
80405;BME280;69733;48.744;9.176;2023-09-07T00:46:59;97091.97;;;14.90;66.02
80405;BME280;69733;48.744;9.176;2023-09-07T00:49:25;97083.34;;;14.88;66.11
80405;BME280;69733;48.744;9.176;2023-09-07T00:51:51;97092.69;;;14.86;66.07
80405;BME280;69733;48.744;9.176;2023-09-07T00:54:17;97086.78;;;14.84;66.32
80405;BME280;69733;48.744;9.176;2023-09-07T00:56:43;97089.69;;;14.82;66.36
80405;BME280;69733;48.744;9.176;2023-09-07T00:59:09;97090.19;;;14.79;66.54
80405;BME280;69733;48.744;9.176;2023-09-07T01:01:35;97090.44;;;14.78;66.69
80405;BME280;69733;48.744;9.176;2023-09-07T01:04:01;97081.28;;;14.74;66.53
80405;BME280;69733;48.744;9.176;2023-09-07T01:06:39;97094.13;;;14.72;66.79
80405;BME280;69733;48.744;9.176;2023-09-07T01:09:16;97088.22;;;14.70;66.92
80405;BME280;69733;48.744;9.176;2023-09-07T01:11:43;97086.00;;;14.67;67.02
80405;BME280;69733;48.744;9.176;2023-09-07T01:14:09;97084.41;;;14.66;67.15
80405;BME280;69733;48.744;9.176;2023-09-07T01:16:35;97083.81;;;14.64;67.20
80405;BME280;69733;48.744;9.176;2023-09-07T01:19:07;97083.50;;;14.60;67.43
80405;BME280;69733;48.744;9.176;2023-09-07T01:21:35;97081.09;;;14.59;67.47
80405;BME280;69733;48.744;9.176;2023-09-07T01:24:02;97084.25;;;14.56;67.60
80405;BME280;69733;48.744;9.176;2023-09-07T01:26:29;97087.97;;;14.55;67.78
80405;BME280;69733;48.744;9.176;2023-09-07T01:28:54;97078.59;;;14.52;67.83
80405;BME280;69733;48.744;9.176;2023-09-07T01:31:19;97073.47;;;14.51;67.97
80405;BME280;69733;48.744;9.176;2023-09-07T01:33:45;97072.91;;;14.49;68.02
80405;BME280;69733;48.744;9.176;2023-09-07T01:36:10;97069.66;;;14.47;67.99
80405;BME280;69733;48.744;9.176;2023-09-07T01:38:36;97069.91;;;14.45;68.34
80405;BME280;69733;48.744;9.176;2023-09-07T01:41:01;97069.34;;;14.43;68.46
80405;BME280;69733;48.744;9.176;2023-09-07T01:43:26;97069.81;;;14.40;68.36
80405;BME280;69733;48.744;9.176;2023-09-07T01:45:52;97066.59;;;14.38;68.63
80405;BME280;69733;48.744;9.176;2023-09-07T01:48:17;97071.13;;;14.37;68.59
80405;BME280;69733;48.744;9.176;2023-09-07T01:50:42;97077.00;;;14.34;68.88
80405;BME280;69733;48.744;9.176;2023-09-07T01:53:08;97075.31;;;14.33;68.92
80405;BME280;69733;48.744;9.176;2023-09-07T01:55:33;97080.09;;;14.31;68.75
80405;BME280;69733;48.744;9.176;2023-09-07T01:57:58;97080.34;;;14.30;69.02
80405;BME280;69733;48.744;9.176;2023-09-07T02:00:24;97079.00;;;14.27;69.04
80405;BME280;69733;48.744;9.176;2023-09-07T02:02:49;97082.72;;;14.26;69.54
80405;BME280;69733;48.744;9.176;2023-09-07T02:05:15;97082.94;;;14.25;69.24
80405;BME280;69733;48.744;9.176;2023-09-07T02:07:41;97084.25;;;14.22;69.41
80405;BME280;69733;48.744;9.176;2023-09-07T02:10:07;97086.94;;;14.22;69.54
80405;BME280;69733;48.744;9.176;2023-09-07T02:12:32;97075.41;;;14.22;69.66
80405;BME280;69733;48.744;9.176;2023-09-07T02:15:01;97077.25;;;14.21;69.76
80405;BME280;69733;48.744;9.176;2023-09-07T02:17:27;97087.16;;;14.21;69.82
80405;BME280;69733;48.744;9.176;2023-09-07T02:19:52;97081.47;;;14.17;69.86
80405;BME280;69733;48.744;9.176;2023-09-07T02:22:18;97089.78;;;14.16;69.93
80405;BME280;69733;48.744;9.176;2023-09-07T02:24:43;97081.41;;;14.12;69.93
80405;BME280;69733;48.744;9.176;2023-09-07T02:27:08;97080.06;;;14.10;70.26
80405;BME280;69733;48.744;9.176;2023-09-07T02:29:34;97082.41;;;14.06;70.32
80405;BME280;69733;48.744;9.176;2023-09-07T02:31:59;97077.50;;;14.03;70.41
80405;BME280;69733;48.744;9.176;2023-09-07T02:34:25;97067.28;;;14.00;70.64
80405;BME280;69733;48.744;9.176;2023-09-07T02:36:50;97078.25;;;13.99;70.66
80405;BME280;69733;48.744;9.176;2023-09-07T02:39:15;97074.19;;;13.96;70.67
80405;BME280;69733;48.744;9.176;2023-09-07T02:41:40;97072.59;;;13.95;70.77
80405;BME280;69733;48.744;9.176;2023-09-07T02:44:06;97069.59;;;13.91;70.78
80405;BME280;69733;48.744;9.176;2023-09-07T02:46:31;97069.81;;;13.90;71.07
80405;BME280;69733;48.744;9.176;2023-09-07T02:48:57;97071.94;;;13.88;71.24
80405;BME280;69733;48.744;9.176;2023-09-07T02:51:25;97067.06;;;13.85;71.40
80405;BME280;69733;48.744;9.176;2023-09-07T02:53:51;97076.13;;;13.84;71.40
80405;BME280;69733;48.744;9.176;2023-09-07T02:56:17;97070.19;;;13.82;71.57
80405;BME280;69733;48.744;9.176;2023-09-07T02:58:42;97070.47;;;13.80;71.37
80405;BME280;69733;48.744;9.176;2023-09-07T03:01:08;97066.16;;;13.79;71.54
80405;BME280;69733;48.744;9.176;2023-09-07T03:03:37;97069.31;;;13.76;71.65
80405;BME280;69733;48.744;9.176;2023-09-07T03:06:13;97064.19;;;13.75;71.81
80405;BME280;69733;48.744;9.176;2023-09-07T03:08:44;97062.81;;;13.72;72.00
80405;BME280;69733;48.744;9.176;2023-09-07T03:11:10;97059.59;;;13.70;72.04
80405;BME280;69733;48.744;9.176;2023-09-07T03:13:35;97061.94;;;13.67;72.19
80405;BME280;69733;48.744;9.176;2023-09-07T03:16:02;97065.66;;;13.66;72.11
80405;BME280;69733;48.744;9.176;2023-09-07T03:18:28;97061.84;;;13.62;72.20
80405;BME280;69733;48.744;9.176;2023-09-07T03:20:55;97062.31;;;13.59;72.29
80405;BME280;69733;48.744;9.176;2023-09-07T03:23:21;97059.09;;;13.57;72.66
80405;BME280;69733;48.744;9.176;2023-09-07T03:25:47;97058.75;;;13.53;72.71
80405;BME280;69733;48.744;9.176;2023-09-07T03:28:13;97057.34;;;13.51;72.71
80405;BME280;69733;48.744;9.176;2023-09-07T03:30:38;97054.13;;;13.49;72.48
80405;BME280;69733;48.744;9.176;2023-09-07T03:33:04;97060.50;;;13.48;72.76
80405;BME280;69733;48.744;9.176;2023-09-07T03:35:30;97060.19;;;13.44;73.09
80405;BME280;69733;48.744;9.176;2023-09-07T03:37:55;97055.31;;;13.41;73.04
80405;BME280;69733;48.744;9.176;2023-09-07T03:40:21;97055.81;;;13.38;73.29
80405;BME280;69733;48.744;9.176;2023-09-07T03:42:46;97059.78;;;13.35;73.53
80405;BME280;69733;48.744;9.176;2023-09-07T03:45:12;97056.78;;;13.32;73.31
80405;BME280;69733;48.744;9.176;2023-09-07T03:47:37;97053.50;;;13.30;73.45
80405;BME280;69733;48.744;9.176;2023-09-07T03:50:05;97054.81;;;13.27;73.54
80405;BME280;69733;48.744;9.176;2023-09-07T03:52:31;97056.09;;;13.25;73.58
80405;BME280;69733;48.744;9.176;2023-09-07T03:54:57;97056.56;;;13.22;73.60
80405;BME280;69733;48.744;9.176;2023-09-07T03:57:23;97057.03;;;13.19;73.96
80405;BME280;69733;48.744;9.176;2023-09-07T03:59:48;97064.50;;;13.17;73.94
80405;BME280;69733;48.744;9.176;2023-09-07T04:02:14;97060.44;;;13.14;73.99
80405;BME280;69733;48.744;9.176;2023-09-07T04:04:40;97062.78;;;13.11;73.94
80405;BME280;69733;48.744;9.176;2023-09-07T04:07:06;97059.75;;;13.07;74.04
80405;BME280;69733;48.744;9.176;2023-09-07T04:09:31;97063.44;;;13.06;74.28
80405;BME280;69733;48.744;9.176;2023-09-07T04:11:56;97055.91;;;13.03;74.38
80405;BME280;69733;48.744;9.176;2023-09-07T04:14:22;97059.06;;;13.00;74.35
80405;BME280;69733;48.744;9.176;2023-09-07T04:16:47;97063.81;;;12.98;74.35
80405;BME280;69733;48.744;9.176;2023-09-07T04:19:12;97063.72;;;12.93;74.51
80405;BME280;69733;48.744;9.176;2023-09-07T04:21:38;97061.28;;;12.91;74.80
80405;BME280;69733;48.744;9.176;2023-09-07T04:24:04;97061.75;;;12.88;74.78
80405;BME280;69733;48.744;9.176;2023-09-07T04:26:29;97058.75;;;12.85;74.64
80405;BME280;69733;48.744;9.176;2023-09-07T04:28:55;97065.13;;;12.84;74.83
80405;BME280;69733;48.744;9.176;2023-09-07T04:31:20;97058.63;;;12.80;75.04
80405;BME280;69733;48.744;9.176;2023-09-07T04:33:46;97053.75;;;12.77;74.99
80405;BME280;69733;48.744;9.176;2023-09-07T04:36:13;97055.88;;;12.75;74.94
80405;BME280;69733;48.744;9.176;2023-09-07T04:38:40;97055.53;;;12.71;75.18
80405;BME280;69733;48.744;9.176;2023-09-07T04:41:12;97050.41;;;12.70;75.13
80405;BME280;69733;48.744;9.176;2023-09-07T04:43:39;97051.44;;;12.69;75.20
80405;BME280;69733;48.744;9.176;2023-09-07T04:46:12;97050.63;;;12.68;75.20
80405;BME280;69733;48.744;9.176;2023-09-07T04:48:38;97058.91;;;12.67;75.30
80405;BME280;69733;48.744;9.176;2023-09-07T04:51:05;97060.75;;;12.66;75.66
80405;BME280;69733;48.744;9.176;2023-09-07T04:53:32;97057.53;;;12.64;75.32
80405;BME280;69733;48.744;9.176;2023-09-07T04:55:58;97060.97;;;12.65;75.38
80405;BME280;69733;48.744;9.176;2023-09-07T04:58:24;97051.94;;;12.66;75.37
80405;BME280;69733;48.744;9.176;2023-09-07T05:00:50;97060.19;;;12.64;75.49
80405;BME280;69733;48.744;9.176;2023-09-07T05:03:16;97054.38;;;12.67;75.49
80405;BME280;69733;48.744;9.176;2023-09-07T05:05:41;97059.72;;;12.67;75.60
80405;BME280;69733;48.744;9.176;2023-09-07T05:08:07;97065.88;;;12.68;75.43
80405;BME280;69733;48.744;9.176;2023-09-07T05:10:36;97064.56;;;12.70;75.30
80405;BME280;69733;48.744;9.176;2023-09-07T05:13:02;97070.47;;;12.72;75.63
80405;BME280;69733;48.744;9.176;2023-09-07T05:15:27;97062.25;;;12.74;75.42
80405;BME280;69733;48.744;9.176;2023-09-07T05:17:53;97075.94;;;12.77;75.62
80405;BME280;69733;48.744;9.176;2023-09-07T05:20:19;97074.66;;;12.80;75.60
80405;BME280;69733;48.744;9.176;2023-09-07T05:22:44;97078.69;;;12.82;75.47
80405;BME280;69733;48.744;9.176;2023-09-07T05:25:11;97077.19;;;12.86;75.46
80405;BME280;69733;48.744;9.176;2023-09-07T05:27:36;97084.50;;;12.91;75.44
80405;BME280;69733;48.744;9.176;2023-09-07T05:30:02;97088.34;;;12.95;75.68
80405;BME280;69733;48.744;9.176;2023-09-07T05:32:28;97090.53;;;12.98;75.50
80405;BME280;69733;48.744;9.176;2023-09-07T05:34:53;97090.88;;;13.02;75.39
80405;BME280;69733;48.744;9.176;2023-09-07T05:37:18;97090.16;;;13.06;75.51
80405;BME280;69733;48.744;9.176;2023-09-07T05:39:44;97089.34;;;13.17;75.25
80405;BME280;69733;48.744;9.176;2023-09-07T05:42:09;97085.38;;;13.76;74.07
80405;BME280;69733;48.744;9.176;2023-09-07T05:44:35;97088.63;;;14.62;72.30
80405;BME280;69733;48.744;9.176;2023-09-07T05:47:00;97082.22;;;15.50;70.63
80405;BME280;69733;48.744;9.176;2023-09-07T05:49:27;97082.72;;;16.32;69.98
80405;BME280;69733;48.744;9.176;2023-09-07T05:51:53;97077.00;;;17.07;68.96
80405;BME280;69733;48.744;9.176;2023-09-07T05:54:18;97077.72;;;17.65;68.53
80405;BME280;69733;48.744;9.176;2023-09-07T05:56:43;97082.63;;;18.28;68.16
80405;BME280;69733;48.744;9.176;2023-09-07T05:59:08;97083.41;;;18.79;67.93
80405;BME280;69733;48.744;9.176;2023-09-07T06:01:34;97076.75;;;19.31;67.36
80405;BME280;69733;48.744;9.176;2023-09-07T06:04:00;97077.88;;;19.79;66.85
80405;BME280;69733;48.744;9.176;2023-09-07T06:06:25;97079.75;;;20.17;66.28
80405;BME280;69733;48.744;9.176;2023-09-07T06:08:50;97085.13;;;20.56;66.49
80405;BME280;69733;48.744;9.176;2023-09-07T06:11:16;97086.03;;;20.99;66.24
80405;BME280;69733;48.744;9.176;2023-09-07T06:13:41;97083.16;;;21.38;65.74
80405;BME280;69733;48.744;9.176;2023-09-07T06:16:07;97084.59;;;21.73;65.47
80405;BME280;69733;48.744;9.176;2023-09-07T06:18:32;97083.38;;;22.03;65.64
80405;BME280;69733;48.744;9.176;2023-09-07T06:20:57;97082.19;;;22.27;65.43
80405;BME280;69733;48.744;9.176;2023-09-07T06:23:23;97081.75;;;22.53;65.06
80405;BME280;69733;48.744;9.176;2023-09-07T06:25:48;97080.56;;;22.59;65.69
80405;BME280;69733;48.744;9.176;2023-09-07T06:28:13;97080.22;;;22.93;64.84
80405;BME280;69733;48.744;9.176;2023-09-07T06:30:39;97078.22;;;23.25;64.55
80405;BME280;69733;48.744;9.176;2023-09-07T06:33:04;97088.28;;;23.39;64.50
80405;BME280;69733;48.744;9.176;2023-09-07T06:35:29;97074.81;;;23.61;64.01
80405;BME280;69733;48.744;9.176;2023-09-07T06:37:55;97082.50;;;23.95;63.48
80405;BME280;69733;48.744;9.176;2023-09-07T06:40:21;97072.38;;;24.31;62.65
80405;BME280;69733;48.744;9.176;2023-09-07T06:42:46;97073.38;;;24.35;63.05
80405;BME280;69733;48.744;9.176;2023-09-07T06:45:12;97075.72;;;24.50;62.53
80405;BME280;69733;48.744;9.176;2023-09-07T06:47:37;97077.47;;;24.77;62.10
80405;BME280;69733;48.744;9.176;2023-09-07T06:50:04;97080.16;;;24.99;61.35
80405;BME280;69733;48.744;9.176;2023-09-07T06:52:29;97086.63;;;25.12;61.02
80405;BME280;69733;48.744;9.176;2023-09-07T06:54:55;97085.44;;;25.35;60.01
80405;BME280;69733;48.744;9.176;2023-09-07T06:57:20;97090.75;;;25.49;59.77
80405;BME280;69733;48.744;9.176;2023-09-07T06:59:46;97101.91;;;25.69;59.02
80405;BME280;69733;48.744;9.176;2023-09-07T07:02:11;97097.13;;;26.01;58.07
80405;BME280;69733;48.744;9.176;2023-09-07T07:04:37;97098.59;;;26.41;56.63
80405;BME280;69733;48.744;9.176;2023-09-07T07:07:02;97093.72;;;26.81;55.61
80405;BME280;69733;48.744;9.176;2023-09-07T07:09:35;97095.75;;;27.10;54.95
80405;BME280;69733;48.744;9.176;2023-09-07T07:12:01;97095.81;;;27.31;53.85
80405;BME280;69733;48.744;9.176;2023-09-07T07:14:27;97097.97;;;27.54;53.16
80405;BME280;69733;48.744;9.176;2023-09-07T07:16:52;97113.06;;;27.81;52.35
80405;BME280;69733;48.744;9.176;2023-09-07T07:19:17;97097.56;;;27.94;51.52
80405;BME280;69733;48.744;9.176;2023-09-07T07:21:43;97100.47;;;28.18;50.91
80405;BME280;69733;48.744;9.176;2023-09-07T07:24:08;97106.91;;;28.34;49.79
80405;BME280;69733;48.744;9.176;2023-09-07T07:26:34;97109.41;;;28.60;49.33
80405;BME280;69733;48.744;9.176;2023-09-07T07:28:59;97099.25;;;28.81;48.65
80405;BME280;69733;48.744;9.176;2023-09-07T07:31:25;97105.13;;;29.16;47.44
80405;BME280;69733;48.744;9.176;2023-09-07T07:33:50;97095.47;;;29.31;46.73
80405;BME280;69733;48.744;9.176;2023-09-07T07:36:18;97102.91;;;29.42;46.20
80405;BME280;69733;48.744;9.176;2023-09-07T07:38:43;97103.25;;;29.53;45.64
80405;BME280;69733;48.744;9.176;2023-09-07T07:41:09;97100.72;;;29.48;45.40
80405;BME280;69733;48.744;9.176;2023-09-07T07:43:34;97103.72;;;29.67;44.39
80405;BME280;69733;48.744;9.176;2023-09-07T07:45:59;97105.22;;;29.89;43.65
80405;BME280;69733;48.744;9.176;2023-09-07T07:48:25;97113.16;;;30.06;42.74
80405;BME280;69733;48.744;9.176;2023-09-07T07:50:50;97108.63;;;30.38;41.94
80405;BME280;69733;48.744;9.176;2023-09-07T07:53:16;97107.34;;;30.47;41.32
80405;BME280;69733;48.744;9.176;2023-09-07T07:55:41;97108.03;;;30.72;41.01
80405;BME280;69733;48.744;9.176;2023-09-07T07:58:10;97107.41;;;30.63;40.73
80405;BME280;69733;48.744;9.176;2023-09-07T08:00:36;97111.41;;;30.66;40.32
80405;BME280;69733;48.744;9.176;2023-09-07T08:03:05;97105.06;;;30.77;39.41
80405;BME280;69733;48.744;9.176;2023-09-07T08:05:34;97102.09;;;30.98;39.20
80405;BME280;69733;48.744;9.176;2023-09-07T08:08:00;97105.75;;;31.18;38.54
80405;BME280;69733;48.744;9.176;2023-09-07T08:10:25;97102.09;;;31.29;38.27
80405;BME280;69733;48.744;9.176;2023-09-07T08:12:53;97095.91;;;31.32;37.67
80405;BME280;69733;48.744;9.176;2023-09-07T08:15:20;97094.13;;;31.40;37.11
80405;BME280;69733;48.744;9.176;2023-09-07T08:17:47;97088.00;;;31.31;37.41
80405;BME280;69733;48.744;9.176;2023-09-07T08:20:13;97094.06;;;31.52;36.77
80405;BME280;69733;48.744;9.176;2023-09-07T08:22:39;97088.28;;;31.57;36.30
80405;BME280;69733;48.744;9.176;2023-09-07T08:25:06;97081.09;;;31.52;36.07
80405;BME280;69733;48.744;9.176;2023-09-07T08:27:32;97086.84;;;31.47;36.16
80405;BME280;69733;48.744;9.176;2023-09-07T08:29:57;97080.34;;;31.71;35.64
80405;BME280;69733;48.744;9.176;2023-09-07T08:32:24;97088.00;;;31.97;35.20
80405;BME280;69733;48.744;9.176;2023-09-07T08:34:49;97089.56;;;32.14;34.69
80405;BME280;69733;48.744;9.176;2023-09-07T08:37:16;97086.81;;;32.14;34.88
80405;BME280;69733;48.744;9.176;2023-09-07T08:39:41;97100.13;;;32.46;34.37
80405;BME280;69733;48.744;9.176;2023-09-07T08:42:06;97103.56;;;32.59;34.00
80405;BME280;69733;48.744;9.176;2023-09-07T08:44:35;97097.59;;;32.76;34.11
80405;BME280;69733;48.744;9.176;2023-09-07T08:47:02;97106.63;;;32.96;33.88
80405;BME280;69733;48.744;9.176;2023-09-07T08:49:29;97106.13;;;32.90;33.34
80405;BME280;69733;48.744;9.176;2023-09-07T08:51:58;97092.47;;;32.97;33.55
80405;BME280;69733;48.744;9.176;2023-09-07T08:54:24;97093.63;;;33.16;32.94
80405;BME280;69733;48.744;9.176;2023-09-07T08:56:50;97088.47;;;33.37;32.95
80405;BME280;69733;48.744;9.176;2023-09-07T08:59:15;97091.69;;;33.65;32.98
80405;BME280;69733;48.744;9.176;2023-09-07T09:01:41;97093.03;;;33.52;32.42
80405;BME280;69733;48.744;9.176;2023-09-07T09:04:07;97099.09;;;33.61;32.22
80405;BME280;69733;48.744;9.176;2023-09-07T09:06:33;97108.00;;;33.74;32.28
80405;BME280;69733;48.744;9.176;2023-09-07T09:08:59;97105.50;;;33.91;31.99
80405;BME280;69733;48.744;9.176;2023-09-07T09:11:26;97099.41;;;34.09;31.79
80405;BME280;69733;48.744;9.176;2023-09-07T09:13:53;97100.88;;;34.25;31.86
80405;BME280;69733;48.744;9.176;2023-09-07T09:16:19;97100.94;;;34.29;31.35
80405;BME280;69733;48.744;9.176;2023-09-07T09:18:55;97097.53;;;34.13;31.64
80405;BME280;69733;48.744;9.176;2023-09-07T09:21:27;97091.53;;;33.81;31.43
80405;BME280;69733;48.744;9.176;2023-09-07T09:23:54;97093.88;;;33.79;31.80
80405;BME280;69733;48.744;9.176;2023-09-07T09:26:22;97088.50;;;33.89;31.51
80405;BME280;69733;48.744;9.176;2023-09-07T09:28:48;97089.16;;;33.79;31.36
80405;BME280;69733;48.744;9.176;2023-09-07T09:31:16;97076.81;;;33.73;31.21
80405;BME280;69733;48.744;9.176;2023-09-07T09:33:42;97077.16;;;33.68;31.42
80405;BME280;69733;48.744;9.176;2023-09-07T09:36:12;97079.06;;;33.64;31.24
80405;BME280;69733;48.744;9.176;2023-09-07T09:38:37;97078.38;;;33.48;31.34
80405;BME280;69733;48.744;9.176;2023-09-07T09:41:04;97077.97;;;33.23;31.47
80405;BME280;69733;48.744;9.176;2023-09-07T09:43:29;97074.50;;;33.26;31.62
80405;BME280;69733;48.744;9.176;2023-09-07T09:45:55;97074.91;;;33.28;31.44
80405;BME280;69733;48.744;9.176;2023-09-07T09:48:22;97077.41;;;33.37;31.37
80405;BME280;69733;48.744;9.176;2023-09-07T09:50:48;97075.38;;;33.34;31.45
80405;BME280;69733;48.744;9.176;2023-09-07T09:53:15;97068.63;;;33.31;31.23
80405;BME280;69733;48.744;9.176;2023-09-07T09:55:44;97070.34;;;33.39;31.32
80405;BME280;69733;48.744;9.176;2023-09-07T09:58:11;97074.38;;;33.45;31.58
80405;BME280;69733;48.744;9.176;2023-09-07T10:00:37;97071.72;;;33.26;31.48
80405;BME280;69733;48.744;9.176;2023-09-07T10:03:14;97071.03;;;33.33;31.55
80405;BME280;69733;48.744;9.176;2023-09-07T10:05:40;97081.56;;;33.27;31.55
80405;BME280;69733;48.744;9.176;2023-09-07T10:08:12;97072.84;;;33.02;31.84
80405;BME280;69733;48.744;9.176;2023-09-07T10:10:38;97065.44;;;33.07;31.89
80405;BME280;69733;48.744;9.176;2023-09-07T10:13:05;97074.31;;;32.96;32.08
80405;BME280;69733;48.744;9.176;2023-09-07T10:15:32;97065.81;;;32.63;32.38
80405;BME280;69733;48.744;9.176;2023-09-07T10:18:12;97074.50;;;32.46;32.19
80405;BME280;69733;48.744;9.176;2023-09-07T10:20:55;97072.34;;;32.17;32.86
80405;BME280;69733;48.744;9.176;2023-09-07T10:23:22;97074.06;;;32.25;32.77
80405;BME280;69733;48.744;9.176;2023-09-07T10:25:52;97067.69;;;32.40;32.88
80405;BME280;69733;48.744;9.176;2023-09-07T10:28:22;97059.56;;;32.28;33.00
80405;BME280;69733;48.744;9.176;2023-09-07T10:33:29;97055.22;;;32.08;33.79
80405;BME280;69733;48.744;9.176;2023-09-07T10:35:55;97055.53;;;31.87;33.69
80405;BME280;69733;48.744;9.176;2023-09-07T10:38:22;97047.16;;;31.48;34.10
80405;BME280;69733;48.744;9.176;2023-09-07T10:40:48;97044.09;;;31.03;34.73
80405;BME280;69733;48.744;9.176;2023-09-07T10:43:33;97053.59;;;30.62;35.48
80405;BME280;69733;48.744;9.176;2023-09-07T10:46:01;97049.00;;;30.38;35.91
80405;BME280;69733;48.744;9.176;2023-09-07T10:48:30;97047.06;;;30.11;36.30
80405;BME280;69733;48.744;9.176;2023-09-07T10:50:56;97040.13;;;29.89;37.06
80405;BME280;69733;48.744;9.176;2023-09-07T10:53:30;97046.53;;;29.69;37.48
80405;BME280;69733;48.744;9.176;2023-09-07T10:55:57;97037.00;;;29.51;37.74
80405;BME280;69733;48.744;9.176;2023-09-07T10:58:30;97034.91;;;29.24;38.40
80405;BME280;69733;48.744;9.176;2023-09-07T11:00:56;97034.31;;;29.06;38.76
80405;BME280;69733;48.744;9.176;2023-09-07T11:03:44;97035.09;;;28.82;38.77
80405;BME280;69733;48.744;9.176;2023-09-07T11:06:17;97035.28;;;28.65;39.23
80405;BME280;69733;48.744;9.176;2023-09-07T11:08:45;97029.72;;;28.41;39.42
80405;BME280;69733;48.744;9.176;2023-09-07T11:11:12;97030.56;;;28.21;39.81
80405;BME280;69733;48.744;9.176;2023-09-07T11:13:38;97038.09;;;28.03;40.30
80405;BME280;69733;48.744;9.176;2023-09-07T11:16:07;97028.34;;;27.93;40.58
80405;BME280;69733;48.744;9.176;2023-09-07T11:18:33;97028.75;;;27.83;40.48
80405;BME280;69733;48.744;9.176;2023-09-07T11:21:00;97022.66;;;27.78;40.69
80405;BME280;69733;48.744;9.176;2023-09-07T11:23:28;97026.44;;;27.73;40.89
80405;BME280;69733;48.744;9.176;2023-09-07T11:25:54;97023.75;;;27.64;41.39
80405;BME280;69733;48.744;9.176;2023-09-07T11:28:19;97021.53;;;27.58;41.36
80405;BME280;69733;48.744;9.176;2023-09-07T11:30:51;97018.72;;;27.46;41.67
80405;BME280;69733;48.744;9.176;2023-09-07T11:33:17;97015.34;;;27.40;42.14
80405;BME280;69733;48.744;9.176;2023-09-07T11:35:42;97012.22;;;27.30;42.48
80405;BME280;69733;48.744;9.176;2023-09-07T11:38:07;97014.19;;;27.20;42.81
80405;BME280;69733;48.744;9.176;2023-09-07T11:40:36;97005.38;;;27.15;42.89
80405;BME280;69733;48.744;9.176;2023-09-07T11:43:01;97010.03;;;27.14;43.02
80405;BME280;69733;48.744;9.176;2023-09-07T11:45:26;97017.28;;;27.10;43.37
80405;BME280;69733;48.744;9.176;2023-09-07T11:47:52;97009.81;;;26.99;43.40
80405;BME280;69733;48.744;9.176;2023-09-07T11:50:18;97013.88;;;26.84;43.60
80405;BME280;69733;48.744;9.176;2023-09-07T11:52:44;97013.22;;;26.79;44.02
80405;BME280;69733;48.744;9.176;2023-09-07T11:55:09;97014.38;;;26.69;44.20
80405;BME280;69733;48.744;9.176;2023-09-07T11:57:36;97003.16;;;26.62;44.32
80405;BME280;69733;48.744;9.176;2023-09-07T12:00:02;97011.56;;;26.57;44.29
80405;BME280;69733;48.744;9.176;2023-09-07T12:02:28;97005.94;;;26.53;44.50
80405;BME280;69733;48.744;9.176;2023-09-07T12:04:53;97005.13;;;26.53;44.36
80405;BME280;69733;48.744;9.176;2023-09-07T12:07:19;96994.72;;;26.46;44.80
80405;BME280;69733;48.744;9.176;2023-09-07T12:09:44;96994.56;;;26.43;44.76
80405;BME280;69733;48.744;9.176;2023-09-07T12:12:10;96992.16;;;26.33;44.80
80405;BME280;69733;48.744;9.176;2023-09-07T12:14:36;97001.81;;;26.30;45.00
80405;BME280;69733;48.744;9.176;2023-09-07T12:17:01;96995.09;;;26.28;45.68
80405;BME280;69733;48.744;9.176;2023-09-07T12:19:26;96999.25;;;26.25;45.48
80405;BME280;69733;48.744;9.176;2023-09-07T12:21:52;97000.53;;;26.19;45.94
80405;BME280;69733;48.744;9.176;2023-09-07T12:24:17;96994.09;;;26.15;45.94
80405;BME280;69733;48.744;9.176;2023-09-07T12:26:42;96996.66;;;26.11;46.08
80405;BME280;69733;48.744;9.176;2023-09-07T12:29:07;96998.47;;;26.07;46.41
80405;BME280;69733;48.744;9.176;2023-09-07T12:31:33;96988.50;;;26.03;46.18
80405;BME280;69733;48.744;9.176;2023-09-07T12:33:58;96988.19;;;25.96;46.38
80405;BME280;69733;48.744;9.176;2023-09-07T12:36:24;96992.38;;;25.93;46.37
80405;BME280;69733;48.744;9.176;2023-09-07T12:38:49;97000.88;;;25.92;46.45
80405;BME280;69733;48.744;9.176;2023-09-07T12:41:14;96979.53;;;25.85;46.50
80405;BME280;69733;48.744;9.176;2023-09-07T12:43:41;96989.94;;;25.83;46.61
80405;BME280;69733;48.744;9.176;2023-09-07T12:46:08;96989.78;;;25.80;47.11
80405;BME280;69733;48.744;9.176;2023-09-07T12:48:33;96994.44;;;25.79;47.17
80405;BME280;69733;48.744;9.176;2023-09-07T12:50:59;96997.81;;;25.76;47.26
80405;BME280;69733;48.744;9.176;2023-09-07T12:53:24;96994.47;;;25.70;47.39
80405;BME280;69733;48.744;9.176;2023-09-07T12:55:52;96988.84;;;25.67;47.31
80405;BME280;69733;48.744;9.176;2023-09-07T12:58:18;96987.72;;;25.68;47.55